Time;durP1;ratioP1;P1;durP2;ratioP2;P2;SDS_P1;SDS_P2;PMS_P1;PMS_P2;Temp;Humidity;BMP_temperature;BMP_pressure;BME280_temperature;BME280_humidity;BME280_pressure;Samples;Min_cycle;Max_cycle;Signal;HPM_P1;HPM_P2
2022/06/30 00:01:31;;;;;;;7.60;6.80;;;;;;;;;;5077048;28;20036;-81
2022/06/30 00:03:57;;;;;;;11.07;6.55;;;;;;;;;;5076479;28;20041;-80
2022/06/30 00:06:24;;;;;;;9.43;5.95;;;;;;;;;;5080254;28;20048;-81
2022/06/30 00:08:52;;;;;;;7.78;6.05;;;;;;;;;;5092874;28;20048;-81
2022/06/30 00:11:19;;;;;;;7.82;6.20;;;;;;;;;;5088529;28;20071;-81
2022/06/30 00:13:45;;;;;;;9.35;6.65;;;;;;;;;;5090023;28;20040;-81
2022/06/30 00:16:11;;;;;;;9.60;6.82;;;;;;;;;;5074405;28;20043;-81
2022/06/30 00:18:38;;;;;;;10.80;7.05;;;;;;;;;;5092230;28;20494;-81
2022/06/30 00:21:05;;;;;;;9.48;6.38;;;;;;;;;;5091554;28;20071;-81
2022/06/30 00:23:31;;;;;;;9.13;6.63;;;;;;;;;;5083993;28;20044;-80
2022/06/30 00:25:57;;;;;;;6.88;6.13;;;;;;;;;;5086030;28;20037;-81
2022/06/30 00:28:23;;;;;;;8.45;6.30;;;;;;;;;;5091020;28;20032;-81
2022/06/30 00:30:50;;;;;;;7.70;6.13;;;;;;;;;;5087569;28;20371;-81
2022/06/30 00:33:17;;;;;;;7.57;6.78;;;;;;;;;;5085394;28;20398;-81
2022/06/30 00:35:43;;;;;;;8.82;6.60;;;;;;;;;;5090734;28;20046;-81
2022/06/30 00:38:10;;;;;;;11.80;6.30;;;;;;;;;;5079044;28;20036;-80
2022/06/30 00:40:36;;;;;;;8.23;6.60;;;;;;;;;;5090100;28;20413;-80
2022/06/30 00:43:02;;;;;;;7.18;6.38;;;;;;;;;;5086737;28;20051;-80
2022/06/30 00:45:29;;;;;;;9.48;7.20;;;;;;;;;;5089591;28;20044;-81
2022/06/30 00:47:55;;;;;;;8.05;6.85;;;;;;;;;;5062531;28;20122;-80
2022/06/30 00:50:21;;;;;;;11.05;6.68;;;;;;;;;;5090378;28;20107;-80
2022/06/30 00:52:49;;;;;;;8.18;6.95;;;;;;;;;;5080901;28;20505;-81
2022/06/30 00:55:16;;;;;;;8.40;5.72;;;;;;;;;;5086144;28;20039;-81
2022/06/30 00:57:43;;;;;;;9.38;6.55;;;;;;;;;;5087020;28;20390;-81
2022/06/30 01:00:10;;;;;;;8.85;6.32;;;;;;;;;;5078312;28;20050;-81
2022/06/30 01:02:36;;;;;;;8.85;7.85;;;;;;;;;;5076635;28;20055;-81
2022/06/30 01:05:02;;;;;;;9.43;7.38;;;;;;;;;;5106303;28;20048;-81
2022/06/30 01:07:29;;;;;;;8.13;6.38;;;;;;;;;;5089509;28;20126;-81
2022/06/30 01:12:45;;;;;;;8.15;6.35;;;;;;;;;;5088999;28;20129;-81
2022/06/30 01:15:12;;;;;;;6.90;6.05;;;;;;;;;;5081555;28;20075;-82
2022/06/30 01:17:38;;;;;;;8.10;6.22;;;;;;;;;;5075665;28;20054;-81
2022/06/30 01:20:04;;;;;;;9.95;6.72;;;;;;;;;;5087988;28;20422;-81
2022/06/30 01:22:30;;;;;;;8.50;7.32;;;;;;;;;;5073322;28;20071;-81
2022/06/30 01:24:57;;;;;;;24.77;6.97;;;;;;;;;;5073107;28;20056;-82
2022/06/30 01:27:23;;;;;;;8.18;7.38;;;;;;;;;;5093890;28;20532;-81
2022/06/30 01:29:50;;;;;;;7.35;6.65;;;;;;;;;;5081942;28;20028;-81
2022/06/30 01:32:17;;;;;;;9.05;6.55;;;;;;;;;;5088812;28;20043;-81
2022/06/30 01:34:43;;;;;;;7.30;6.47;;;;;;;;;;5091198;28;20883;-81
2022/06/30 01:37:09;;;;;;;9.73;7.30;;;;;;;;;;5094392;28;20482;-81
2022/06/30 01:39:35;;;;;;;7.13;6.40;;;;;;;;;;5083515;28;20036;-79
2022/06/30 01:42:02;;;;;;;7.18;6.47;;;;;;;;;;5087640;28;20072;-80
2022/06/30 01:44:28;;;;;;;8.50;5.82;;;;;;;;;;5083950;28;20039;-80
2022/06/30 01:46:54;;;;;;;8.45;5.55;;;;;;;;;;5081229;28;20115;-81
2022/06/30 01:49:20;;;;;;;7.90;5.47;;;;;;;;;;5089992;28;20071;-81
2022/06/30 01:51:47;;;;;;;9.63;5.70;;;;;;;;;;5091487;28;20089;-81
2022/06/30 01:54:13;;;;;;;6.07;5.18;;;;;;;;;;5093892;28;20046;-81
2022/06/30 01:56:39;;;;;;;7.55;4.70;;;;;;;;;;5097090;28;20047;-81
2022/06/30 01:59:06;;;;;;;5.60;4.75;;;;;;;;;;5093608;28;20039;-81
2022/06/30 02:01:32;;;;;;;6.60;5.07;;;;;;;;;;5091580;28;20054;-80
2022/06/30 02:06:45;;;;;;;6.25;4.82;;;;;;;;;;5087119;28;20145;-81
2022/06/30 02:09:11;;;;;;;6.82;4.40;;;;;;;;;;5081902;28;20041;-81
2022/06/30 02:11:37;;;;;;;6.38;4.82;;;;;;;;;;5089550;28;20040;-81
2022/06/30 02:14:03;;;;;;;6.32;4.80;;;;;;;;;;5085124;28;20040;-81
2022/06/30 02:16:30;;;;;;;4.75;4.18;;;;;;;;;;5088284;28;20040;-80
2022/06/30 02:18:56;;;;;;;8.30;5.28;;;;;;;;;;5079844;28;20233;-80
2022/06/30 02:21:23;;;;;;;8.75;4.80;;;;;;;;;;5083496;28;20050;-80
2022/06/30 02:23:51;;;;;;;8.95;4.63;;;;;;;;;;5088927;28;20043;-80
2022/06/30 02:26:17;;;;;;;6.13;4.05;;;;;;;;;;5090377;28;20036;-80
2022/06/30 02:28:44;;;;;;;5.55;4.00;;;;;;;;;;5088451;28;20044;-81
2022/06/30 02:31:12;;;;;;;5.68;4.90;;;;;;;;;;5087179;28;20047;-80
2022/06/30 02:33:39;;;;;;;7.90;4.85;;;;;;;;;;5090161;28;20051;-80
2022/06/30 02:36:05;;;;;;;6.70;4.80;;;;;;;;;;5079900;28;20047;-79
2022/06/30 02:38:32;;;;;;;8.05;4.40;;;;;;;;;;5074173;28;20036;-80
2022/06/30 02:40:58;;;;;;;6.82;4.35;;;;;;;;;;5073353;28;20113;-81
2022/06/30 02:43:24;;;;;;;6.28;4.43;;;;;;;;;;5092168;28;20400;-80
2022/06/30 02:45:50;;;;;;;6.18;4.75;;;;;;;;;;5081357;28;20036;-81
2022/06/30 02:48:18;;;;;;;5.55;4.10;;;;;;;;;;5085842;28;20495;-80
2022/06/30 02:50:45;;;;;;;6.35;4.38;;;;;;;;;;5085386;28;20586;-80
2022/06/30 02:53:14;;;;;;;5.68;4.47;;;;;;;;;;5094597;28;20063;-81
2022/06/30 02:55:40;;;;;;;5.47;4.20;;;;;;;;;;5087959;28;20066;-80
2022/06/30 02:58:06;;;;;;;6.13;4.57;;;;;;;;;;5083428;28;20098;-80
2022/06/30 03:00:32;;;;;;;5.75;4.20;;;;;;;;;;5085993;28;20048;-81
2022/06/30 03:02:58;;;;;;;7.05;5.00;;;;;;;;;;5098120;28;20148;-81
2022/06/30 03:05:25;;;;;;;5.03;4.10;;;;;;;;;;5087442;28;20056;-81
2022/06/30 03:07:51;;;;;;;6.00;4.13;;;;;;;;;;5088006;28;20036;-81
2022/06/30 03:10:17;;;;;;;14.40;4.65;;;;;;;;;;5091820;28;20101;-80
2022/06/30 03:12:43;;;;;;;6.90;4.57;;;;;;;;;;5078701;28;20039;-81
2022/06/30 03:15:10;;;;;;;5.18;4.32;;;;;;;;;;5091288;28;20127;-81
2022/06/30 03:17:39;;;;;;;5.15;4.28;;;;;;;;;;5089909;28;20051;-80
2022/06/30 03:20:05;;;;;;;7.18;4.75;;;;;;;;;;5090636;28;20254;-80
2022/06/30 03:22:31;;;;;;;9.73;4.00;;;;;;;;;;5086976;28;20506;-81
2022/06/30 03:24:57;;;;;;;5.50;4.53;;;;;;;;;;5090146;28;20125;-80
2022/06/30 03:27:23;;;;;;;7.18;4.40;;;;;;;;;;5079845;28;20040;-80
2022/06/30 03:29:49;;;;;;;6.13;3.88;;;;;;;;;;5084344;28;20119;-80
2022/06/30 03:32:16;;;;;;;5.07;4.28;;;;;;;;;;5070093;28;20102;-80
2022/06/30 03:34:42;;;;;;;6.43;4.07;;;;;;;;;;5089565;28;20089;-80
2022/06/30 03:37:08;;;;;;;5.75;4.53;;;;;;;;;;5085310;28;20082;-81
2022/06/30 03:39:34;;;;;;;11.55;4.80;;;;;;;;;;5090593;28;20518;-80
2022/06/30 03:42:00;;;;;;;9.55;4.03;;;;;;;;;;5081227;28;20036;-80
2022/06/30 03:44:26;;;;;;;5.60;4.78;;;;;;;;;;5088460;28;20046;-80
2022/06/30 03:46:53;;;;;;;5.47;3.72;;;;;;;;;;5089441;28;20552;-80
2022/06/30 03:49:19;;;;;;;5.15;4.03;;;;;;;;;;5089433;28;20036;-80
2022/06/30 03:51:45;;;;;;;6.13;4.30;;;;;;;;;;5077240;28;20045;-80
2022/06/30 03:54:11;;;;;;;6.35;3.95;;;;;;;;;;5082141;28;20130;-81
2022/06/30 03:56:37;;;;;;;5.80;4.50;;;;;;;;;;5089860;28;20524;-80
2022/06/30 03:59:04;;;;;;;7.07;5.13;;;;;;;;;;5080052;28;20032;-80
2022/06/30 04:01:30;;;;;;;5.32;4.63;;;;;;;;;;5083871;28;20046;-80
2022/06/30 04:03:56;;;;;;;7.55;5.13;;;;;;;;;;5090722;28;20498;-80
2022/06/30 04:06:23;;;;;;;4.78;4.10;;;;;;;;;;5087607;28;20445;-80
2022/06/30 04:08:49;;;;;;;4.82;4.00;;;;;;;;;;5096419;28;20071;-80
2022/06/30 04:11:15;;;;;;;6.68;4.47;;;;;;;;;;5091978;28;20282;-80
2022/06/30 04:13:41;;;;;;;5.85;4.35;;;;;;;;;;5092603;28;20546;-81
2022/06/30 04:16:09;;;;;;;5.95;4.75;;;;;;;;;;5081937;28;20052;-81
2022/06/30 04:18:37;;;;;;;5.18;4.45;;;;;;;;;;5079997;28;20081;-81
2022/06/30 04:21:03;;;;;;;6.55;4.25;;;;;;;;;;5088936;28;20040;-81
2022/06/30 04:23:29;;;;;;;7.43;4.47;;;;;;;;;;5089650;28;20036;-81
2022/06/30 04:25:56;;;;;;;5.68;4.53;;;;;;;;;;5073470;28;20127;-81
2022/06/30 04:28:22;;;;;;;5.38;3.97;;;;;;;;;;5088716;28;20481;-81
2022/06/30 04:33:33;;;;;;;6.03;4.93;;;;;;;;;;5088117;28;20031;-81
2022/06/30 04:36:00;;;;;;;5.97;4.75;;;;;;;;;;5091738;28;20401;-81
2022/06/30 04:38:26;;;;;;;6.00;4.45;;;;;;;;;;5087724;28;20028;-80
2022/06/30 04:43:36;;;;;;;6.20;4.32;;;;;;;;;;5073164;28;20608;-81
2022/06/30 04:46:03;;;;;;;5.72;4.35;;;;;;;;;;5088747;28;20127;-81
2022/06/30 04:48:29;;;;;;;6.38;4.68;;;;;;;;;;5088086;28;20397;-80
2022/06/30 04:50:55;;;;;;;7.32;5.03;;;;;;;;;;5072198;28;20040;-81
2022/06/30 04:53:21;;;;;;;4.60;3.67;;;;;;;;;;5051811;28;20520;-80
2022/06/30 04:55:49;;;;;;;6.50;4.45;;;;;;;;;;5081636;28;20047;-80
2022/06/30 04:58:15;;;;;;;5.63;4.10;;;;;;;;;;5079618;28;20082;-81
2022/06/30 05:00:41;;;;;;;6.57;4.60;;;;;;;;;;5078369;28;20068;-80
2022/06/30 05:03:07;;;;;;;6.82;4.47;;;;;;;;;;5075730;28;20052;-80
2022/06/30 05:05:33;;;;;;;4.97;3.88;;;;;;;;;;5075266;28;20064;-81
2022/06/30 05:07:59;;;;;;;6.28;5.20;;;;;;;;;;5080249;28;20454;-80
2022/06/30 05:10:26;;;;;;;6.47;4.72;;;;;;;;;;5079129;28;20059;-81
2022/06/30 05:12:52;;;;;;;6.25;4.35;;;;;;;;;;5082382;28;20055;-80
2022/06/30 05:15:18;;;;;;;7.57;4.75;;;;;;;;;;5085434;28;20131;-80
2022/06/30 05:17:44;;;;;;;6.20;4.88;;;;;;;;;;5088137;28;20063;-79
2022/06/30 05:20:11;;;;;;;8.63;4.88;;;;;;;;;;5087384;28;20040;-80
2022/06/30 05:22:37;;;;;;;8.43;4.28;;;;;;;;;;5085540;28;20417;-81
2022/06/30 05:27:48;;;;;;;9.55;4.40;;;;;;;;;;5088839;28;20044;-80
2022/06/30 05:30:15;;;;;;;5.15;4.07;;;;;;;;;;5081866;28;20040;-80
2022/06/30 05:32:41;;;;;;;8.73;4.60;;;;;;;;;;5089964;28;20044;-79
2022/06/30 05:35:07;;;;;;;4.97;4.28;;;;;;;;;;5083275;28;20096;-80
2022/06/30 05:37:34;;;;;;;8.77;4.93;;;;;;;;;;5083915;28;20052;-80
2022/06/30 05:40:00;;;;;;;9.18;4.60;;;;;;;;;;5069287;28;20072;-79
2022/06/30 05:42:26;;;;;;;6.00;4.65;;;;;;;;;;5088032;28;20543;-80
2022/06/30 05:44:52;;;;;;;7.72;4.95;;;;;;;;;;5071601;28;20051;-80
2022/06/30 05:47:18;;;;;;;7.07;5.63;;;;;;;;;;5082942;28;20074;-81
2022/06/30 05:49:44;;;;;;;5.97;4.55;;;;;;;;;;5077719;28;20417;-80
2022/06/30 05:52:10;;;;;;;8.07;5.63;;;;;;;;;;5093103;28;20380;-80
2022/06/30 05:54:37;;;;;;;12.10;5.18;;;;;;;;;;5078369;28;20052;-80
2022/06/30 05:57:04;;;;;;;5.72;4.63;;;;;;;;;;5063776;28;20043;-80
2022/06/30 05:59:32;;;;;;;6.88;5.03;;;;;;;;;;5094212;28;20032;-80
2022/06/30 06:01:59;;;;;;;6.03;4.95;;;;;;;;;;5092363;28;20168;-79
2022/06/30 06:04:25;;;;;;;6.93;4.95;;;;;;;;;;5092660;28;20044;-80
2022/06/30 06:06:52;;;;;;;8.82;5.38;;;;;;;;;;5074831;28;20043;-80
2022/06/30 06:09:18;;;;;;;6.68;4.95;;;;;;;;;;5090038;28;20032;-80
2022/06/30 06:11:45;;;;;;;8.32;5.18;;;;;;;;;;5090219;28;20051;-80
2022/06/30 06:14:11;;;;;;;6.63;5.72;;;;;;;;;;5082613;28;20047;-80
2022/06/30 06:16:37;;;;;;;7.13;5.70;;;;;;;;;;5087062;28;20397;-79
2022/06/30 06:19:03;;;;;;;8.07;5.85;;;;;;;;;;5087494;28;20078;-79
2022/06/30 06:21:30;;;;;;;9.00;5.93;;;;;;;;;;5088893;28;20036;-79
2022/06/30 06:23:56;;;;;;;8.00;5.45;;;;;;;;;;5081307;28;20501;-79
2022/06/30 06:26:22;;;;;;;7.63;6.05;;;;;;;;;;5087950;28;20478;-78
2022/06/30 06:29:07;;;;;;;8.45;6.07;;;;;;;;;;5087697;28;20036;-79
2022/06/30 06:31:34;;;;;;;7.45;4.80;;;;;;;;;;5092245;28;20497;-79
2022/06/30 06:34:02;;;;;;;7.20;5.57;;;;;;;;;;5088586;28;20123;-79
2022/06/30 06:36:28;;;;;;;7.82;5.50;;;;;;;;;;5072204;28;20040;-79
2022/06/30 06:38:55;;;;;;;9.88;5.90;;;;;;;;;;5080450;28;20044;-79
2022/06/30 06:41:21;;;;;;;7.40;6.00;;;;;;;;;;5071223;28;20130;-79
2022/06/30 06:43:48;;;;;;;10.77;6.28;;;;;;;;;;5078009;28;20044;-79
2022/06/30 06:46:14;;;;;;;9.82;6.25;;;;;;;;;;5071555;28;20048;-79
2022/06/30 06:48:40;;;;;;;8.88;6.10;;;;;;;;;;5087904;28;20254;-80
2022/06/30 06:51:07;;;;;;;7.28;6.25;;;;;;;;;;5087512;28;20122;-79
2022/06/30 06:53:33;;;;;;;8.38;6.78;;;;;;;;;;5061120;28;20482;-80
2022/06/30 06:55:59;;;;;;;8.98;6.00;;;;;;;;;;5090741;28;20065;-79
2022/06/30 06:58:26;;;;;;;9.77;7.15;;;;;;;;;;5068274;28;20044;-79
2022/06/30 07:00:54;;;;;;;8.57;5.53;;;;;;;;;;5075550;28;20250;-78
2022/06/30 07:03:21;;;;;;;10.65;7.03;;;;;;;;;;5081186;28;20044;-79
2022/06/30 07:05:47;;;;;;;7.43;6.35;;;;;;;;;;5084778;28;20045;-79
2022/06/30 07:08:13;;;;;;;9.48;6.18;;;;;;;;;;5087501;28;20031;-79
2022/06/30 07:10:40;;;;;;;7.53;6.70;;;;;;;;;;5078709;28;20525;-79
2022/06/30 07:13:06;;;;;;;11.75;6.05;;;;;;;;;;5090063;28;20044;-79
2022/06/30 07:15:32;;;;;;;14.55;7.20;;;;;;;;;;5082781;28;20095;-79
2022/06/30 07:18:01;;;;;;;11.95;7.90;;;;;;;;;;5072865;28;20126;-79
2022/06/30 07:20:27;;;;;;;8.07;6.82;;;;;;;;;;5088087;28;20040;-79
2022/06/30 07:22:54;;;;;;;6.53;5.78;;;;;;;;;;5089355;28;20371;-79
2022/06/30 07:25:20;;;;;;;7.60;6.80;;;;;;;;;;5090929;28;20209;-79
2022/06/30 07:27:46;;;;;;;7.25;6.22;;;;;;;;;;5089632;28;20032;-78
2022/06/30 07:30:13;;;;;;;8.35;7.05;;;;;;;;;;5083507;28;20055;-79
2022/06/30 07:32:39;;;;;;;12.93;6.78;;;;;;;;;;5059283;28;20048;-79
2022/06/30 07:35:06;;;;;;;8.57;7.35;;;;;;;;;;5084810;28;20048;-79
2022/06/30 07:37:36;;;;;;;8.43;7.07;;;;;;;;;;5084879;28;20032;-78
2022/06/30 07:40:02;;;;;;;9.82;7.28;;;;;;;;;;5076630;28;20123;-79
2022/06/30 07:42:29;;;;;;;9.02;6.40;;;;;;;;;;5090344;28;20572;-79
2022/06/30 07:44:55;;;;;;;9.35;6.95;;;;;;;;;;5084455;28;20070;-79
2022/06/30 07:47:22;;;;;;;11.98;8.27;;;;;;;;;;5081910;28;20036;-78
2022/06/30 07:49:49;;;;;;;9.90;7.57;;;;;;;;;;5080902;28;20432;-79
2022/06/30 07:52:15;;;;;;;8.23;6.82;;;;;;;;;;5091004;28;20052;-79
2022/06/30 07:54:41;;;;;;;8.75;6.72;;;;;;;;;;5066002;28;20382;-81
2022/06/30 07:57:07;;;;;;;12.60;6.82;;;;;;;;;;5087397;28;20039;-82
2022/06/30 07:59:33;;;;;;;7.57;6.78;;;;;;;;;;5084924;28;20097;-77
2022/06/30 08:02:00;;;;;;;11.70;7.43;;;;;;;;;;5079491;28;20119;-71
2022/06/30 08:04:27;;;;;;;8.27;7.15;;;;;;;;;;5090126;28;20036;-72
2022/06/30 08:06:53;;;;;;;12.30;8.68;;;;;;;;;;5085749;28;20127;-74
2022/06/30 08:09:20;;;;;;;9.25;7.72;;;;;;;;;;5091607;28;20028;-73
2022/06/30 08:11:46;;;;;;;9.43;7.65;;;;;;;;;;5065191;28;20035;-74
2022/06/30 08:14:12;;;;;;;14.57;8.65;;;;;;;;;;5088764;28;20678;-74
2022/06/30 08:16:38;;;;;;;7.85;7.05;;;;;;;;;;5082553;28;20040;-73
2022/06/30 08:19:04;;;;;;;9.82;7.57;;;;;;;;;;5088894;28;20493;-74
2022/06/30 08:21:31;;;;;;;9.60;8.60;;;;;;;;;;5087246;28;20037;-73
2022/06/30 08:23:57;;;;;;;9.07;8.10;;;;;;;;;;5082885;28;20051;-74
2022/06/30 08:26:23;;;;;;;14.05;8.80;;;;;;;;;;5063500;28;20040;-73
2022/06/30 08:28:49;;;;;;;8.65;7.72;;;;;;;;;;5085834;28;20051;-73
2022/06/30 08:31:16;;;;;;;13.02;9.90;;;;;;;;;;5077462;28;20486;-74
2022/06/30 08:33:42;;;;;;;11.60;9.40;;;;;;;;;;5072886;28;20114;-74
2022/06/30 08:36:08;;;;;;;14.20;9.63;;;;;;;;;;5082492;28;20485;-74
2022/06/30 08:38:34;;;;;;;12.65;9.93;;;;;;;;;;5082972;28;20089;-74
2022/06/30 08:43:46;;;;;;;17.30;11.93;;;;;;;;;;5084478;28;20165;-73
2022/06/30 08:46:13;;;;;;;13.55;9.57;;;;;;;;;;5077292;28;20511;-73
2022/06/30 08:48:40;;;;;;;12.05;8.95;;;;;;;;;;5089983;28;20044;-73
2022/06/30 08:51:07;;;;;;;15.95;10.60;;;;;;;;;;5085302;28;20105;-72
2022/06/30 08:53:42;;;;;;;11.20;9.55;;;;;;;;;;5085986;28;20084;-73
2022/06/30 08:56:08;;;;;;;10.65;9.40;;;;;;;;;;5081854;28;20133;-72
2022/06/30 08:58:36;;;;;;;14.98;9.90;;;;;;;;;;5089304;28;20401;-73
2022/06/30 09:01:05;;;;;;;12.30;10.90;;;;;;;;;;5085364;28;20457;-73
2022/06/30 09:03:31;;;;;;;13.07;10.85;;;;;;;;;;5086411;28;20052;-72
2022/06/30 09:05:57;;;;;;;13.80;11.30;;;;;;;;;;5065112;28;20060;-71
2022/06/30 09:08:26;;;;;;;13.07;9.52;;;;;;;;;;5080357;28;20510;-72
2022/06/30 09:10:54;;;;;;;11.45;9.57;;;;;;;;;;5083683;28;20033;-71
2022/06/30 09:13:20;;;;;;;15.25;12.48;;;;;;;;;;5079999;28;20513;-68
2022/06/30 09:15:49;;;;;;;12.10;10.80;;;;;;;;;;5082746;28;20071;-67
2022/06/30 09:18:25;;;;;;;15.13;11.23;;;;;;;;;;5080154;28;20126;-71
2022/06/30 09:20:53;;;;;;;13.88;10.70;;;;;;;;;;5090188;28;20048;-72
2022/06/30 09:23:20;;;;;;;10.77;9.50;;;;;;;;;;5091706;28;20055;-65
2022/06/30 09:25:50;;;;;;;11.20;8.73;;;;;;;;;;5092785;28;20032;-67
2022/06/30 09:28:17;;;;;;;16.75;9.45;;;;;;;;;;5061934;28;20101;-69
2022/06/30 09:30:44;;;;;;;10.02;8.98;;;;;;;;;;5075582;28;20102;-72
2022/06/30 09:33:10;;;;;;;12.82;10.20;;;;;;;;;;5087566;28;20089;-70
2022/06/30 09:35:38;;;;;;;16.13;10.43;;;;;;;;;;5080016;28;20123;-67
2022/06/30 09:38:05;;;;;;;13.30;11.07;;;;;;;;;;5079514;28;20056;-67
2022/06/30 09:41:00;;;;;;;12.27;10.27;;;;;;;;;;5092278;28;20040;-67
2022/06/30 09:43:34;;;;;;;13.57;10.65;;;;;;;;;;5086815;28;20545;-65
2022/06/30 09:46:00;;;;;;;14.63;10.38;;;;;;;;;;5089955;28;20398;-64
2022/06/30 09:48:28;;;;;;;13.75;11.45;;;;;;;;;;5089948;28;20028;-65
2022/06/30 09:50:58;;;;;;;13.35;11.48;;;;;;;;;;5089740;28;20036;-65
2022/06/30 09:53:24;;;;;;;14.32;11.48;;;;;;;;;;5082200;28;20470;-64
2022/06/30 09:55:50;;;;;;;14.27;11.15;;;;;;;;;;5087878;28;20386;-64
2022/06/30 09:58:18;;;;;;;14.18;12.15;;;;;;;;;;5088522;27;20040;-65
2022/06/30 10:00:45;;;;;;;15.05;11.30;;;;;;;;;;5087500;28;20055;-65
2022/06/30 10:03:12;;;;;;;15.77;12.55;;;;;;;;;;5092414;28;20537;-67
2022/06/30 10:05:43;;;;;;;13.30;11.45;;;;;;;;;;5088530;28;20044;-67
2022/06/30 10:08:10;;;;;;;19.50;12.87;;;;;;;;;;5082770;28;20040;-67
2022/06/30 10:10:37;;;;;;;16.58;14.82;;;;;;;;;;5087267;28;20039;-67
2022/06/30 10:13:04;;;;;;;17.20;13.20;;;;;;;;;;5090414;28;20513;-67
2022/06/30 10:15:32;;;;;;;20.17;16.40;;;;;;;;;;5087976;28;20071;-67
2022/06/30 10:17:59;;;;;;;17.95;14.38;;;;;;;;;;5088267;28;20036;-67
2022/06/30 10:20:28;;;;;;;18.65;14.57;;;;;;;;;;5087196;28;20111;-67
2022/06/30 10:22:54;;;;;;;19.10;14.75;;;;;;;;;;5089744;28;20108;-68
2022/06/30 10:25:21;;;;;;;18.45;13.15;;;;;;;;;;5088414;28;20047;-67
2022/06/30 10:27:47;;;;;;;17.30;14.15;;;;;;;;;;5086534;28;20460;-67
2022/06/30 10:30:15;;;;;;;15.25;12.55;;;;;;;;;;5088112;28;20113;-67
2022/06/30 10:32:44;;;;;;;16.15;11.48;;;;;;;;;;5089264;28;20092;-67
2022/06/30 10:35:21;;;;;;;14.70;10.43;;;;;;;;;;5093033;28;20130;-67
2022/06/30 10:37:52;;;;;;;14.57;11.82;;;;;;;;;;5083363;28;20044;-67
2022/06/30 10:40:21;;;;;;;16.25;13.60;;;;;;;;;;5088321;28;20043;-67
2022/06/30 10:42:47;;;;;;;15.52;11.48;;;;;;;;;;5092115;28;20170;-67
2022/06/30 10:45:40;;;;;;;12.15;9.85;;;;;;;;;;5088126;28;20030;-67
2022/06/30 10:48:07;;;;;;;9.60;8.60;;;;;;;;;;5072515;28;20105;-67
2022/06/30 10:50:43;;;;;;;11.90;8.55;;;;;;;;;;5091380;28;20043;-68
2022/06/30 10:53:14;;;;;;;14.60;10.30;;;;;;;;;;5088387;28;20044;-68
2022/06/30 10:55:49;;;;;;;13.48;10.93;;;;;;;;;;5080280;28;20055;-66
2022/06/30 10:58:16;;;;;;;11.80;9.02;;;;;;;;;;5084675;28;20056;-66
2022/06/30 11:00:43;;;;;;;9.20;6.78;;;;;;;;;;5076726;28;20110;-67
2022/06/30 11:03:09;;;;;;;8.70;6.93;;;;;;;;;;5091174;28;20562;-68
2022/06/30 11:05:49;;;;;;;9.23;6.57;;;;;;;;;;5087745;28;20083;-67
2022/06/30 11:08:34;;;;;;;11.20;7.43;;;;;;;;;;5091172;28;20111;-68
2022/06/30 11:11:24;;;;;;;15.02;9.10;;;;;;;;;;5085490;28;20048;-68
2022/06/30 11:14:02;;;;;;;8.60;6.57;;;;;;;;;;5085898;28;20032;-67
2022/06/30 11:16:33;;;;;;;8.40;7.53;;;;;;;;;;5089493;28;20051;-68
2022/06/30 11:19:00;;;;;;;10.35;7.93;;;;;;;;;;5073903;28;20067;-65
2022/06/30 11:21:29;;;;;;;9.93;7.63;;;;;;;;;;5091901;28;20024;-68
2022/06/30 11:23:58;;;;;;;11.23;7.93;;;;;;;;;;5089016;28;20044;-67
2022/06/30 11:29:14;;;;;;;15.15;10.05;;;;;;;;;;5086644;28;20427;-68
2022/06/30 11:31:41;;;;;;;10.45;7.50;;;;;;;;;;5089994;28;20086;-68
2022/06/30 11:34:09;;;;;;;12.00;7.88;;;;;;;;;;5089477;28;20139;-67
2022/06/30 11:36:36;;;;;;;11.00;8.82;;;;;;;;;;5086184;28;20043;-67
2022/06/30 11:39:08;;;;;;;14.80;8.80;;;;;;;;;;5088011;28;20039;-68
2022/06/30 11:44:22;;;;;;;13.38;9.75;;;;;;;;;;5087048;28;20058;-68
2022/06/30 11:46:51;;;;;;;15.32;11.20;;;;;;;;;;5087209;28;20059;-67
2022/06/30 11:49:17;;;;;;;37.47;10.27;;;26.40;64.00;;;;;;5085260;28;20584;-68
2022/06/30 11:51:44;;;;;;;14.77;9.50;;;26.30;96.50;;;;;;5086136;28;20055;-68
2022/06/30 11:54:11;;;;;;;12.00;7.85;;;26.10;96.20;;;;;;5083575;28;20046;-68
2022/06/30 11:56:45;;;;;;;14.45;7.47;;;26.10;95.70;;;;;;5088465;28;20424;-68
2022/06/30 11:59:11;;;;;;;8.50;6.15;;;26.10;95.40;;;;;;5082763;28;20055;-68
2022/06/30 12:01:37;;;;;;;11.52;7.40;;;26.10;95.40;;;;;;5083461;28;20274;-67
2022/06/30 12:04:15;;;;;;;9.05;6.88;;;26.10;95.50;;;;;;5087617;28;21587;-67
2022/06/30 12:06:41;;;;;;;10.60;7.25;;;26.20;95.80;;;;;;5084570;28;20049;-67
2022/06/30 12:09:07;;;;;;;10.32;6.53;;;26.20;95.60;;;;;;5081473;28;20115;-67
2022/06/30 12:11:35;;;;;;;9.32;7.20;;;26.30;95.70;;;;;;5082577;28;20032;-68
2022/06/30 12:14:02;;;;;;;10.80;7.38;;;26.20;95.10;;;;;;5089935;28;20040;-68
2022/06/30 12:16:28;;;;;;;9.23;5.65;;;26.10;94.60;;;;;;5082340;28;20487;-68
2022/06/30 12:18:54;;;;;;;8.10;5.65;;;26.10;94.30;;;;;;5085192;28;20072;-69
2022/06/30 12:21:21;;;;;;;7.38;4.97;;;26.10;94.20;;;;;;5089885;28;20078;-68
2022/06/30 12:23:48;;;;;;;9.60;5.55;;;26.10;94.10;;;;;;5089878;28;20063;-68
2022/06/30 12:26:15;;;;;;;7.90;5.40;;;26.10;94.10;;;;;;5085847;28;20088;-68
2022/06/30 12:28:55;;;;;;;10.05;5.70;;;26.10;93.90;;;;;;5083395;28;20052;-68
2022/06/30 12:31:28;;;;;;;8.30;5.32;;;26.10;93.90;;;;;;5078670;28;20040;-68
2022/06/30 12:33:56;;;;;;;8.75;6.03;;;26.10;94.30;;;;;;5089393;28;20052;-68
2022/06/30 12:36:23;;;;;;;9.73;7.72;;;26.10;94.40;;;;;;5071096;28;20079;-68
2022/06/30 12:38:49;;;;;;;9.30;5.72;;;26.00;93.90;;;;;;5087707;28;20043;-67
2022/06/30 12:41:16;;;;;;;9.48;6.68;;;26.10;93.90;;;;;;5089612;28;20036;-67
2022/06/30 12:43:43;;;;;;;9.60;4.93;;;;;;;;;;5089679;28;20103;-68
2022/06/30 12:46:11;;;;;;;8.38;4.97;;;;;;;;;;5079363;28;20128;-68
2022/06/30 12:48:56;;;;;;;6.40;3.80;;;;;;;;;;5089981;28;20040;-68
2022/06/30 12:51:28;;;;;;;6.40;4.20;;;;;;;;;;5088303;28;20036;-68
2022/06/30 12:54:00;;;;;;;6.15;3.45;;;;;;;;;;5087648;28;20040;-68
2022/06/30 12:56:27;;;;;;;;;;;;;;;;;;5082674;28;20390;-67
2022/06/30 12:59:01;;;;;;;8.18;4.50;;;;;;;;;;5094858;28;19916;-68
2022/06/30 13:01:33;;;;;;;5.57;3.88;;;;;;;;;;5088708;28;20040;-68
2022/06/30 13:04:04;;;;;;;8.82;4.88;;;;;;;;;;5090365;28;20095;-68
2022/06/30 13:06:34;;;;;;;7.30;4.80;;;;;;;;;;5087466;28;20036;-68
2022/06/30 13:09:06;;;;;;;15.13;4.53;;;;;;;;;;5085756;28;20032;-68
2022/06/30 13:11:33;;;;;;;6.55;4.43;;;;;;;;;;5089924;28;20074;-68
2022/06/30 13:14:00;;;;;;;6.30;4.63;;;;;;;;;;5093004;28;20509;-68
2022/06/30 13:16:27;;;;;;;11.13;6.57;;;;;;;;;;5087804;28;20036;-68
2022/06/30 13:18:54;;;;;;;8.38;5.47;;;;;;;;;;5088590;28;20043;-67
2022/06/30 13:21:20;;;;;;;9.35;5.00;;;;;;;;;;5092160;28;20109;-68
2022/06/30 13:23:47;;;;;;;6.03;4.68;;;;;;;;;;5080714;28;20123;-68
2022/06/30 13:26:13;;;;;;;8.93;5.75;;;;;;;;;;5082612;28;20390;-68
2022/06/30 13:28:40;;;;;;;5.93;5.20;;;;;;;;;;5092169;28;20529;-67
2022/06/30 13:31:06;;;;;;;8.68;4.70;;;;;;;;;;5090727;28;20046;-68
2022/06/30 13:33:34;;;;;;;7.65;5.43;;;;;;;;;;5089783;28;20044;-68
2022/06/30 13:36:01;;;;;;;9.82;5.65;;;;;;;;;;5092655;28;20075;-68
2022/06/30 13:38:28;;;;;;;9.82;5.72;;;;;;;;;;5093174;28;20035;-69
2022/06/30 13:40:54;;;;;;;8.20;4.75;;;;;;;;;;5093043;28;20044;-70
2022/06/30 13:43:21;;;;;;;7.32;4.22;;;;;;;;;;5085255;28;20398;-70
2022/06/30 13:45:47;;;;;;;6.65;4.47;;;;;;;;;;5090073;28;20043;-70
2022/06/30 13:48:13;;;;;;;6.43;3.45;;;;;;;;;;5092064;28;20541;-67
2022/06/30 13:50:39;;;;;;;4.72;3.60;;;;;;;;;;5091330;28;20366;-71
2022/06/30 13:53:06;;;;;;;5.75;4.30;;;;;;;;;;5085201;28;20482;-68
2022/06/30 13:55:32;;;;;;;5.28;3.92;;;;;;;;;;5088446;28;20050;-67
2022/06/30 13:57:59;;;;;;;6.10;4.15;;;;;;;;;;5095027;28;20040;-68
2022/06/30 14:00:26;;;;;;;5.32;3.92;;;;;;;;;;5084699;28;20032;-70
2022/06/30 14:02:52;;;;;;;5.90;3.85;;;;;;;;;;5091867;28;20143;-68
2022/06/30 14:05:18;;;;;;;6.40;3.63;;;;;;;;;;5084042;28;20044;-67
2022/06/30 14:07:44;;;;;;;6.22;3.72;;;;;;;;;;5088180;28;20036;-69
2022/06/30 14:10:11;;;;;;;6.15;3.53;;;;;;;;;;5088100;28;20462;-70
2022/06/30 14:12:40;;;;;;;5.85;3.72;;;;;;;;;;5083026;28;20363;-70
2022/06/30 14:15:07;;;;;;;4.28;3.22;;;;;;;;;;5081702;28;20088;-69
2022/06/30 14:17:33;;;;;;;3.85;3.05;;;;;;;;;;5087915;28;20050;-70
2022/06/30 14:19:59;;;;;;;6.15;4.28;;;;;;;;;;5082229;28;20292;-69
2022/06/30 14:22:25;;;;;;;5.15;3.45;;;;;;;;;;5089965;28;20237;-69
2022/06/30 14:24:51;;;;;;;6.25;3.42;;;;;;;;;;5083870;28;20200;-69
2022/06/30 14:27:17;;;;;;;6.35;2.78;;;;;;;;;;5089644;28;20331;-69
2022/06/30 14:29:44;;;;;;;5.10;2.92;;;;;;;;;;5088387;28;20416;-70
2022/06/30 14:32:10;;;;;;;5.93;2.45;;;;;;;;;;5088833;28;20093;-69
2022/06/30 14:34:37;;;;;;;5.47;2.83;;;;;;;;;;5088762;28;20048;-67
2022/06/30 14:37:08;;;;;;;4.32;2.50;;;;;;;;;;5088306;28;20044;-68
2022/06/30 14:39:35;;;;;;;6.63;3.35;;;;;;;;;;5086383;28;20043;-68
2022/06/30 14:44:46;;;;;;;5.28;3.15;;;;;;;;;;5079644;28;20045;-68
2022/06/30 14:47:12;;;;;;;5.25;2.35;;;;;;;;;;5081136;28;20047;-67
2022/06/30 14:49:39;;;;;;;11.05;5.00;;;;;;;;;;5089226;28;20054;-70
2022/06/30 14:52:05;;;;;;;4.93;3.30;;;;;;;;;;5084659;28;20082;-70
2022/06/30 14:54:32;;;;;;;8.52;3.80;;;;;;;;;;5084492;28;20281;-70
2022/06/30 15:03:03;;;;;;;5.20;2.58;;;;;;;;;;5073531;28;20056;-69